createdAt,value
2019-05-09T00:02:10.068Z,96588.73
2019-05-09T00:04:37.828Z,96598.09
2019-05-09T00:07:05.328Z,96594.96
2019-05-09T00:09:33.717Z,96593.25
2019-05-09T00:12:03.547Z,96596.81
2019-05-09T00:14:30.584Z,96592.67
2019-05-09T00:16:58.084Z,96595.69
2019-05-09T00:19:26.248Z,96592.59
2019-05-09T00:21:55.122Z,96594.44
2019-05-09T00:24:23.862Z,96604.02
2019-05-09T00:26:53.342Z,96599.44
2019-05-09T00:29:34.612Z,96602.37
2019-05-09T00:32:03.756Z,96600.20
2019-05-09T00:34:49.228Z,96601.20
2019-05-09T00:37:16.735Z,96606.59
2019-05-09T00:39:44.224Z,96606.33
2019-05-09T00:42:13.681Z,96610.73
2019-05-09T00:44:43.245Z,96611.34
2019-05-09T00:47:13.514Z,96616.83
2019-05-09T00:49:43.390Z,96608.28
2019-05-09T00:52:10.367Z,96612.98
2019-05-09T00:54:37.867Z,96615.20
2019-05-09T00:57:05.365Z,96616.12
2019-05-09T00:59:33.636Z,96618.18
2019-05-09T01:02:03.218Z,96618.48
2019-05-09T01:04:33.248Z,96617.13
2019-05-09T01:07:03.448Z,96618.14
2019-05-09T01:09:33.217Z,96621.19
2019-05-09T01:12:00.368Z,96617.61
2019-05-09T01:14:27.877Z,96623.20
2019-05-09T01:16:55.368Z,96622.80
2019-05-09T01:19:23.535Z,96620.36
2019-05-09T01:21:54.035Z,96617.42
2019-05-09T01:24:23.130Z,96613.70
2019-05-09T01:26:50.128Z,96619.53
2019-05-09T01:29:17.632Z,96616.55
2019-05-09T01:31:45.124Z,96620.55
2019-05-09T01:34:20.265Z,96620.77
2019-05-09T01:37:06.927Z,96623.38
2019-05-09T01:39:34.888Z,96626.93
2019-05-09T01:42:03.258Z,96633.87
2019-05-09T01:44:33.312Z,96631.77
2019-05-09T01:47:00.275Z,96626.18
2019-05-09T01:49:27.776Z,96624.34
2019-05-09T01:51:55.263Z,96631.16
2019-05-09T01:54:24.192Z,96630.94
2019-05-09T01:56:53.609Z,96624.53
2019-05-09T01:59:20.920Z,96625.08
2019-05-09T02:01:48.412Z,96630.44
2019-05-09T02:04:15.916Z,96626.73
2019-05-09T02:06:44.033Z,96629.13
2019-05-09T02:09:13.885Z,96629.91
2019-05-09T02:11:44.968Z,96629.34
2019-05-09T02:14:13.502Z,96620.92
2019-05-09T02:16:58.677Z,96624.50
2019-05-09T02:19:28.780Z,96616.39
2019-05-09T02:21:56.549Z,96620.31
2019-05-09T02:24:24.040Z,96628.45
2019-05-09T02:26:53.313Z,96625.25
2019-05-09T02:29:23.171Z,96622.15
2019-05-09T02:31:50.651Z,96623.98
2019-05-09T02:34:18.188Z,96625.55
2019-05-09T02:36:49.393Z,96626.17
2019-05-09T02:39:18.646Z,96626.52
2019-05-09T02:42:02.518Z,96626.36
2019-05-09T02:44:14.101Z,96632.05
2019-05-09T02:46:43.238Z,96628.45
2019-05-09T02:49:10.753Z,96632.34
2019-05-09T02:51:39.102Z,96630.41
2019-05-09T02:54:09.988Z,96637.77
2019-05-09T02:56:38.574Z,96641.53
2019-05-09T02:59:18.925Z,96644.06
2019-05-09T03:01:50.525Z,96645.58
2019-05-09T03:04:19.012Z,96639.57
2019-05-09T03:06:49.273Z,96642.58
2019-05-09T03:09:18.733Z,96641.97
2019-05-09T03:11:48.294Z,96654.61
2019-05-09T03:14:14.378Z,96650.16
2019-05-09T03:16:41.876Z,96651.34
2019-05-09T03:19:09.541Z,96652.91
2019-05-09T03:21:39.343Z,96651.86
2019-05-09T03:24:09.864Z,96658.36
2019-05-09T03:26:38.666Z,96662.24
2019-05-09T03:29:11.564Z,96659.09
2019-05-09T03:31:40.838Z,96658.49
2019-05-09T03:34:09.358Z,96663.73
2019-05-09T03:36:38.546Z,96657.88
2019-05-09T03:39:08.183Z,96663.90
2019-05-09T03:41:35.824Z,96664.15
2019-05-09T03:44:03.314Z,96661.06
2019-05-09T03:46:41.684Z,96662.85
2019-05-09T03:49:10.809Z,96660.37
2019-05-09T03:51:38.312Z,96661.94
2019-05-09T03:54:07.882Z,96662.24
2019-05-09T03:56:37.547Z,96666.91
2019-05-09T03:59:05.132Z,96665.64
2019-05-09T04:01:32.649Z,96670.69
2019-05-09T04:04:00.188Z,96670.44
2019-05-09T04:06:28.342Z,96672.31
2019-05-09T04:08:58.263Z,96668.56
2019-05-09T04:11:27.529Z,96675.77
2019-05-09T04:13:59.316Z,96676.67
2019-05-09T04:16:27.684Z,96683.65
2019-05-09T04:18:55.399Z,96687.48
2019-05-09T04:21:23.225Z,96686.30
2019-05-09T04:23:51.524Z,96687.05
2019-05-09T04:26:20.668Z,96684.34
2019-05-09T04:28:48.928Z,96683.59
2019-05-09T04:31:17.827Z,96682.77
2019-05-09T04:33:47.354Z,96688.12
2019-05-09T04:36:15.493Z,96685.99
2019-05-09T04:38:43.755Z,96691.09
2019-05-09T04:41:11.275Z,96692.70
2019-05-09T04:43:42.144Z,96694.27
2019-05-09T04:46:13.113Z,96698.77
2019-05-09T04:48:38.864Z,96695.45
2019-05-09T04:51:07.803Z,96700.31
2019-05-09T04:53:37.750Z,96700.64
2019-05-09T04:56:19.429Z,96711.52
2019-05-09T04:58:48.192Z,96708.72
2019-05-09T05:01:19.745Z,96714.22
2019-05-09T05:03:48.006Z,96715.56
2019-05-09T05:06:18.762Z,96708.20
2019-05-09T05:08:44.776Z,96706.09
2019-05-09T05:11:12.264Z,96703.39
2019-05-09T05:13:39.766Z,96704.89
2019-05-09T05:16:08.456Z,96703.31
2019-05-09T05:18:37.416Z,96708.81
2019-05-09T05:21:05.111Z,96709.91
2019-05-09T05:23:34.537Z,96703.16
2019-05-09T05:26:02.026Z,96710.47
2019-05-09T05:28:29.519Z,96708.42
2019-05-09T05:30:58.186Z,96705.63
2019-05-09T05:33:27.858Z,96707.98
2019-05-09T05:35:59.979Z,96712.56
2019-05-09T05:38:27.780Z,96715.09
2019-05-09T05:40:57.705Z,96710.00
2019-05-09T05:43:38.538Z,96716.53
2019-05-09T05:45:55.351Z,96710.88
2019-05-09T05:48:24.498Z,96715.06
2019-05-09T05:50:52.057Z,96717.30
2019-05-09T05:53:19.556Z,96713.45
2019-05-09T05:55:50.471Z,96719.38
2019-05-09T05:58:17.990Z,96714.50
2019-05-09T06:00:45.640Z,96719.91
2019-05-09T06:03:13.912Z,96716.24
2019-05-09T06:05:41.397Z,96717.59
2019-05-09T06:08:09.573Z,96720.91
2019-05-09T06:10:37.897Z,96718.32
2019-05-09T06:13:07.695Z,96717.31
2019-05-09T06:15:34.629Z,96724.13
2019-05-09T06:18:02.128Z,96727.42
2019-05-09T06:20:29.621Z,96721.01
2019-05-09T06:22:58.144Z,96723.95
2019-05-09T06:25:30.073Z,96725.14
2019-05-09T06:27:55.693Z,96719.53
2019-05-09T06:30:28.116Z,96719.66
2019-05-09T06:32:57.836Z,96723.20
2019-05-09T06:35:24.932Z,96723.77
2019-05-09T06:37:52.425Z,96719.89
2019-05-09T06:40:21.529Z,96717.62
2019-05-09T06:42:49.560Z,96709.73
2019-05-09T06:45:32.440Z,96712.17
2019-05-09T06:48:00.396Z,96714.01
2019-05-09T06:50:28.127Z,96722.80
2019-05-09T06:52:57.318Z,96729.76
2019-05-09T06:55:27.642Z,96733.00
2019-05-09T06:57:58.363Z,96741.55
2019-05-09T07:00:28.749Z,96744.22
2019-05-09T07:03:01.044Z,96754.40
2019-05-09T07:05:48.114Z,96755.09
2019-05-09T07:08:18.334Z,96755.77
2019-05-09T07:10:48.327Z,96750.66
2019-05-09T07:13:15.492Z,96742.09
2019-05-09T07:15:42.999Z,96733.61
2019-05-09T07:18:10.517Z,96727.38
2019-05-09T07:20:38.072Z,96730.89
2019-05-09T07:23:08.377Z,96730.55
2019-05-09T07:25:40.096Z,96737.11
2019-05-09T07:28:07.764Z,96734.91
2019-05-09T07:30:52.337Z,96734.84
2019-05-09T07:33:24.424Z,96729.97
2019-05-09T07:35:51.929Z,96740.64
2019-05-09T07:38:29.352Z,96736.35
2019-05-09T07:40:58.037Z,96733.31
2019-05-09T07:43:28.058Z,96740.21
2019-05-09T07:46:04.808Z,96739.55
2019-05-09T07:48:32.305Z,96739.16
2019-05-09T07:50:59.863Z,96734.13
2019-05-09T07:53:28.386Z,96741.34
2019-05-09T07:55:58.059Z,96739.92
2019-05-09T07:58:25.189Z,96734.43
2019-05-09T08:00:52.692Z,96742.16
2019-05-09T08:03:20.184Z,96737.38
2019-05-09T08:05:47.760Z,96740.23
2019-05-09T08:08:18.355Z,96738.61
2019-05-09T08:10:45.067Z,96742.41
2019-05-09T08:13:12.565Z,96753.95
2019-05-09T08:15:40.072Z,96747.27
2019-05-09T08:18:08.430Z,96746.44
2019-05-09T08:20:40.390Z,96744.20
2019-05-09T08:23:08.442Z,96747.00
2019-05-09T08:25:34.810Z,96750.72
2019-05-09T08:28:02.540Z,96748.77
2019-05-09T08:30:35.896Z,96747.45
2019-05-09T08:33:00.292Z,96747.75
2019-05-09T08:35:28.091Z,96743.27
2019-05-09T08:37:58.307Z,96745.06
2019-05-09T08:40:28.344Z,96742.69
2019-05-09T08:42:55.655Z,96743.48
2019-05-09T08:45:27.598Z,96746.87
2019-05-09T08:47:53.652Z,96741.37
2019-05-09T08:50:28.461Z,96749.97
2019-05-09T08:52:57.673Z,96748.31
2019-05-09T08:55:27.532Z,96748.18
2019-05-09T08:57:54.948Z,96755.53
2019-05-09T09:00:22.444Z,96754.97
2019-05-09T09:02:50.269Z,96747.20
2019-05-09T09:05:18.792Z,96752.16
2019-05-09T09:07:48.755Z,96749.58
2019-05-09T09:10:18.643Z,96749.51
2019-05-09T09:12:47.742Z,96757.19
2019-05-09T09:15:14.864Z,96757.61
2019-05-09T09:17:43.136Z,96757.95
2019-05-09T09:20:10.638Z,96759.72
2019-05-09T09:22:38.144Z,96756.59
2019-05-09T09:25:07.732Z,96754.97
2019-05-09T09:27:34.869Z,96757.98
2019-05-09T09:30:16.386Z,96754.96
2019-05-09T09:32:31.665Z,96745.17
2019-05-09T09:34:59.168Z,96742.56
2019-05-09T09:37:37.497Z,96755.88
2019-05-09T09:39:58.236Z,96752.52
2019-05-09T09:42:28.208Z,96747.99
2019-05-09T09:44:55.265Z,96759.17
2019-05-09T09:47:23.535Z,96760.88
2019-05-09T09:49:51.159Z,96756.42
2019-05-09T09:52:18.956Z,96758.55
2019-05-09T09:54:48.088Z,96762.93
2019-05-09T09:57:19.076Z,96751.90
2019-05-09T09:59:53.320Z,96756.03
2019-05-09T10:02:22.468Z,96756.37
2019-05-09T10:04:50.208Z,96751.55
2019-05-09T10:07:18.951Z,96752.84
2019-05-09T10:09:47.988Z,96750.14
2019-05-09T10:12:18.060Z,96757.55
2019-05-09T10:14:49.460Z,96751.04
2019-05-09T10:17:34.886Z,96744.75
2019-05-09T10:20:04.021Z,96752.70
2019-05-09T10:22:31.562Z,96755.41
2019-05-09T10:24:59.132Z,96755.71
2019-05-09T10:27:28.332Z,96758.16
2019-05-09T10:29:57.463Z,96749.95
2019-05-09T10:32:25.144Z,96753.53
2019-05-09T10:34:52.640Z,96763.59
2019-05-09T10:37:20.142Z,96758.97
2019-05-09T10:39:49.042Z,96758.98
2019-05-09T10:42:21.155Z,96752.02
2019-05-09T10:45:07.500Z,96746.28
2019-05-09T10:47:37.775Z,96756.44
2019-05-09T10:50:08.463Z,96756.27
2019-05-09T10:52:36.204Z,96757.84
2019-05-09T10:55:04.477Z,96757.48
2019-05-09T10:57:32.636Z,96756.12
2019-05-09T11:00:01.141Z,96760.07
2019-05-09T11:02:28.644Z,96754.37
2019-05-09T11:04:57.626Z,96757.52
2019-05-09T11:07:25.419Z,96765.69
2019-05-09T11:09:53.245Z,96754.34
2019-05-09T11:12:20.764Z,96755.72
2019-05-09T11:14:48.924Z,96759.80
2019-05-09T11:17:21.430Z,96755.06
2019-05-09T11:19:48.068Z,96763.54
2019-05-09T11:22:14.964Z,96758.89
2019-05-09T11:24:46.642Z,96757.62
2019-05-09T11:27:12.032Z,96752.47
2019-05-09T11:29:39.540Z,96740.14
2019-05-09T11:32:08.180Z,96744.80
2019-05-09T11:34:37.569Z,96751.56
2019-05-09T11:37:05.021Z,96751.84
2019-05-09T11:39:39.726Z,96746.39
2019-05-09T11:42:01.740Z,96738.75
2019-05-09T11:44:29.245Z,96742.31
2019-05-09T11:46:58.218Z,96749.72
2019-05-09T11:49:25.920Z,96753.00
2019-05-09T11:51:53.411Z,96747.27
2019-05-09T11:54:20.913Z,96749.41
2019-05-09T11:56:48.674Z,96760.86
2019-05-09T11:59:18.198Z,96758.05
2019-05-09T12:01:48.035Z,96750.19
2019-05-09T12:04:15.417Z,96758.42
2019-05-09T12:06:42.908Z,96761.11
2019-05-09T12:09:14.118Z,96763.11
2019-05-09T12:11:44.194Z,96770.78
2019-05-09T12:14:09.061Z,96764.40
2019-05-09T12:16:38.095Z,96767.22
2019-05-09T12:19:05.823Z,96769.27
2019-05-09T12:21:33.316Z,96767.13
2019-05-09T12:24:00.820Z,96764.69
2019-05-09T12:26:29.214Z,96757.89
2019-05-09T12:28:57.807Z,96773.23
2019-05-09T12:31:25.605Z,96754.33
2019-05-09T12:33:53.103Z,96759.09
2019-05-09T12:36:20.922Z,96761.05
2019-05-09T12:38:49.644Z,96764.48
2019-05-09T12:41:18.927Z,96749.40
2019-05-09T12:43:47.636Z,96761.08
2019-05-09T12:46:15.147Z,96757.09
2019-05-09T12:48:42.642Z,96766.93
2019-05-09T12:51:10.157Z,96768.59
2019-05-09T12:53:39.563Z,96764.73
2019-05-09T12:56:08.167Z,96770.59
2019-05-09T12:58:35.952Z,96767.58
2019-05-09T13:01:04.224Z,96771.57
2019-05-09T13:03:31.723Z,96764.39
2019-05-09T13:05:59.228Z,96766.97
2019-05-09T13:08:27.855Z,96773.14
2019-05-09T13:10:55.610Z,96764.20
2019-05-09T13:13:23.431Z,96764.45
2019-05-09T13:16:01.547Z,96770.47
2019-05-09T13:18:48.967Z,96770.20
2019-05-09T13:21:18.718Z,96768.55
2019-05-09T13:23:51.925Z,96781.92
2019-05-09T13:26:15.626Z,96782.22
2019-05-09T13:28:43.116Z,96784.92
2019-05-09T13:31:10.628Z,96785.74
2019-05-09T13:33:40.996Z,96784.07
2019-05-09T13:36:09.225Z,96783.56
2019-05-09T13:38:37.826Z,96783.81
2019-05-09T13:41:08.529Z,96779.45
2019-05-09T13:43:44.695Z,96787.96
2019-05-09T13:46:04.684Z,96776.81
2019-05-09T13:48:56.255Z,96779.77
2019-05-09T13:51:01.453Z,96782.48
2019-05-09T13:53:28.970Z,96786.31
2019-05-09T13:55:57.821Z,96790.42
2019-05-09T13:58:25.565Z,96792.61
2019-05-09T14:00:59.254Z,96782.73
2019-05-09T14:03:22.297Z,96787.09
2019-05-09T14:05:49.791Z,96790.84
2019-05-09T14:08:18.211Z,96789.23
2019-05-09T14:10:48.139Z,96794.12
2019-05-09T14:13:15.883Z,96794.14
2019-05-09T14:15:44.243Z,96792.54
2019-05-09T14:18:11.956Z,96792.55
2019-05-09T14:20:39.536Z,96803.95
2019-05-09T14:23:11.406Z,96800.16
2019-05-09T14:25:38.135Z,96806.17
2019-05-09T14:28:08.306Z,96792.67
2019-05-09T14:30:35.365Z,96794.31
2019-05-09T14:33:02.974Z,96797.95
2019-05-09T14:35:30.532Z,96799.54
2019-05-09T14:37:59.109Z,96805.55
2019-05-09T14:40:28.078Z,96809.98
2019-05-09T14:42:57.817Z,96814.43
2019-05-09T14:45:27.418Z,96812.75
2019-05-09T14:47:54.667Z,96808.27
2019-05-09T14:50:22.156Z,96812.77
2019-05-09T14:52:50.642Z,96812.31
2019-05-09T14:55:18.292Z,96809.31
2019-05-09T14:57:47.967Z,96813.95
2019-05-09T15:00:15.031Z,96809.58
2019-05-09T15:02:42.540Z,96816.66
2019-05-09T15:05:10.808Z,96820.95
2019-05-09T15:07:39.136Z,96824.85
2019-05-09T15:10:08.587Z,96821.19
2019-05-09T15:12:38.780Z,96825.91
2019-05-09T15:15:07.615Z,96827.03
2019-05-09T15:17:35.434Z,96832.80
2019-05-09T15:20:03.393Z,96833.66
2019-05-09T15:22:31.669Z,96829.21
2019-05-09T15:24:59.948Z,96825.02
2019-05-09T15:27:27.763Z,96824.20
2019-05-09T15:29:55.425Z,96825.39
2019-05-09T15:32:22.931Z,96824.67
2019-05-09T15:34:50.430Z,96829.63
2019-05-09T15:37:18.635Z,96827.17
2019-05-09T15:39:48.458Z,96831.30
2019-05-09T15:42:18.079Z,96831.23
2019-05-09T15:44:44.941Z,96835.85
2019-05-09T15:47:14.083Z,96831.73
2019-05-09T15:49:41.578Z,96831.73
2019-05-09T15:52:09.081Z,96836.70
2019-05-09T15:54:38.629Z,96836.51
2019-05-09T15:57:08.472Z,96837.00
2019-05-09T15:59:35.156Z,96833.41
2019-05-09T16:02:03.431Z,96835.90
2019-05-09T16:04:31.695Z,96829.13
2019-05-09T16:06:59.214Z,96834.12
2019-05-09T16:09:28.617Z,96836.83
2019-05-09T16:11:56.237Z,96837.70
2019-05-09T16:14:23.727Z,96831.47
2019-05-09T16:16:51.224Z,96830.73
2019-05-09T16:19:19.574Z,96841.84
2019-05-09T16:21:47.762Z,96839.88
2019-05-09T16:24:15.450Z,96842.61
2019-05-09T16:26:42.945Z,96846.92
2019-05-09T16:29:10.453Z,96846.09
2019-05-09T16:31:38.814Z,96852.20
2019-05-09T16:34:09.397Z,96854.64
2019-05-09T16:36:38.275Z,96856.06
2019-05-09T16:39:07.387Z,96854.74
2019-05-09T16:41:35.081Z,96858.41
2019-05-09T16:44:02.590Z,96851.63
2019-05-09T16:46:30.091Z,96855.46
2019-05-09T16:48:58.152Z,96855.97
2019-05-09T16:51:25.855Z,96852.59
2019-05-09T16:53:53.364Z,96862.53
2019-05-09T16:56:20.892Z,96859.13
2019-05-09T16:58:48.393Z,96860.41
2019-05-09T17:01:18.561Z,96860.41
2019-05-09T17:03:45.593Z,96863.92
2019-05-09T17:06:13.088Z,96855.36
2019-05-09T17:08:40.596Z,96856.34
2019-05-09T17:11:08.087Z,96858.73
2019-05-09T17:13:35.617Z,96861.25
2019-05-09T17:16:03.106Z,96858.48
2019-05-09T17:18:30.620Z,96859.30
2019-05-09T17:21:21.485Z,96854.35
2019-05-09T17:23:47.598Z,96853.33
2019-05-09T17:26:17.560Z,96856.73
2019-05-09T17:28:45.148Z,96859.07
2019-05-09T17:31:12.696Z,96863.41
2019-05-09T17:33:40.201Z,96867.48
2019-05-09T17:36:07.697Z,96867.24
2019-05-09T17:38:35.447Z,96865.16
2019-05-09T17:41:02.992Z,96872.98
2019-05-09T17:43:30.514Z,96880.93
2019-05-09T17:45:58.613Z,96885.89
2019-05-09T17:48:28.526Z,96883.45
2019-05-09T17:50:57.864Z,96886.19
2019-05-09T17:53:24.984Z,96888.86
2019-05-09T17:55:53.260Z,96890.19
2019-05-09T17:58:29.312Z,96888.47
2019-05-09T18:00:50.060Z,96890.47
2019-05-09T18:03:18.170Z,96897.64
2019-05-09T18:05:48.358Z,96903.12
2019-05-09T18:08:15.156Z,96903.10
2019-05-09T18:10:43.351Z,96901.73
2019-05-09T18:13:11.612Z,96905.56
2019-05-09T18:15:39.123Z,96910.09
2019-05-09T18:18:06.787Z,96906.34
2019-05-09T18:20:34.338Z,96908.00
2019-05-09T18:23:03.384Z,96900.38
2019-05-09T18:25:31.063Z,96907.45
2019-05-09T18:27:58.548Z,96905.94
2019-05-09T18:30:27.924Z,96906.94
2019-05-09T18:33:00.074Z,96905.13
2019-05-09T18:35:29.453Z,96912.30
2019-05-09T18:37:58.859Z,96913.45
2019-05-09T18:40:28.184Z,96917.65
2019-05-09T18:42:58.225Z,96919.33
2019-05-09T18:45:25.191Z,96924.63
2019-05-09T18:47:52.691Z,96924.56
2019-05-09T18:50:20.197Z,96928.61
2019-05-09T18:52:47.687Z,96927.48
2019-05-09T18:55:15.193Z,96934.89
2019-05-09T18:57:42.689Z,96943.69
2019-05-09T19:00:10.770Z,96940.47
2019-05-09T19:02:38.684Z,96931.95
2019-05-09T19:05:06.457Z,96941.12
2019-05-09T19:07:33.948Z,96936.98
2019-05-09T19:10:01.452Z,96944.34
2019-05-09T19:12:28.993Z,96950.91
2019-05-09T19:14:56.516Z,96955.96
2019-05-09T19:17:40.933Z,96958.17
2019-05-09T19:20:19.331Z,96961.51
2019-05-09T19:22:46.821Z,96964.84
2019-05-09T19:25:14.617Z,96969.95
2019-05-09T19:27:42.161Z,96970.14
2019-05-09T19:30:09.652Z,96973.59
2019-05-09T19:32:37.151Z,96978.44
2019-05-09T19:35:05.413Z,96973.75
2019-05-09T19:37:32.916Z,96982.76
2019-05-09T19:40:00.408Z,96974.97
2019-05-09T19:42:27.908Z,96976.67
2019-05-09T19:44:55.427Z,96983.92
2019-05-09T19:47:22.932Z,96993.70
2019-05-09T19:49:50.416Z,96988.86
2019-05-09T19:52:18.323Z,96995.14
2019-05-09T19:54:46.598Z,96994.69
2019-05-09T19:57:14.119Z,96991.31
2019-05-09T19:59:41.604Z,96999.50
2019-05-09T20:02:09.130Z,97000.56
2019-05-09T20:04:36.603Z,97002.15
2019-05-09T20:07:04.109Z,97004.58
2019-05-09T20:09:45.299Z,97008.41
2019-05-09T20:12:29.516Z,97012.75
2019-05-09T20:14:56.997Z,97012.63
2019-05-09T20:17:24.928Z,97019.39
2019-05-09T20:19:52.462Z,97020.56
2019-05-09T20:22:19.962Z,97021.39
2019-05-09T20:24:47.446Z,97023.20
2019-05-09T20:27:15.695Z,97028.41
2019-05-09T20:29:43.521Z,97029.30
2019-05-09T20:32:11.683Z,97031.38
2019-05-09T20:34:39.898Z,97036.94
2019-05-09T20:37:07.418Z,97036.64
2019-05-09T20:39:35.140Z,97042.66
2019-05-09T20:42:02.829Z,97045.84
2019-05-09T20:44:31.281Z,97050.94
2019-05-09T20:46:58.964Z,97051.55
2019-05-09T20:49:26.641Z,97046.58
2019-05-09T20:51:54.330Z,97050.27
2019-05-09T20:54:22.023Z,97052.30
2019-05-09T20:56:49.965Z,97050.57
2019-05-09T20:59:17.668Z,97054.54
2019-05-09T21:01:45.341Z,97062.45
2019-05-09T21:04:13.025Z,97062.07
2019-05-09T21:06:40.695Z,97059.00
2019-05-09T21:09:09.147Z,97060.66
2019-05-09T21:11:36.824Z,97066.74
2019-05-09T21:14:05.284Z,97065.77
2019-05-09T21:16:33.032Z,97063.36
2019-05-09T21:19:00.720Z,97065.96
2019-05-09T21:21:28.401Z,97071.78
2019-05-09T21:23:56.089Z,97066.20
2019-05-09T21:26:23.760Z,97079.04
2019-05-09T21:28:51.441Z,97076.41
2019-05-09T21:31:19.116Z,97071.94
2019-05-09T21:33:46.799Z,97073.92
2019-05-09T21:36:15.061Z,97077.00
2019-05-09T21:38:42.564Z,97081.84
2019-05-09T21:41:10.054Z,97082.37
2019-05-09T21:43:37.553Z,97085.80
2019-05-09T21:46:05.046Z,97087.95
2019-05-09T21:48:32.546Z,97089.09
2019-05-09T21:51:00.027Z,97094.56
2019-05-09T21:53:39.828Z,97094.71
2019-05-09T21:55:56.753Z,97090.59
2019-05-09T21:58:24.924Z,97100.98
2019-05-09T22:00:53.059Z,97098.86
2019-05-09T22:03:21.325Z,97098.34
2019-05-09T22:05:49.143Z,97107.82
2019-05-09T22:08:16.635Z,97106.22
2019-05-09T22:10:44.128Z,97114.06
2019-05-09T22:13:11.625Z,97117.56
2019-05-09T22:15:39.381Z,97125.15
2019-05-09T22:18:06.881Z,97125.83
2019-05-09T22:20:34.373Z,97129.63
2019-05-09T22:23:01.873Z,97128.78
2019-05-09T22:25:30.028Z,97135.81
2019-05-09T22:27:57.516Z,97136.52
2019-05-09T22:30:25.016Z,97139.23
2019-05-09T22:32:52.519Z,97142.91
2019-05-09T22:35:20.092Z,97127.24
2019-05-09T22:37:48.258Z,97133.84
2019-05-09T22:40:15.848Z,97135.10
2019-05-09T22:42:43.339Z,97133.44
2019-05-09T22:45:10.840Z,97138.78
2019-05-09T22:47:38.332Z,97143.05
2019-05-09T22:50:06.147Z,97143.28
2019-05-09T22:52:33.646Z,97149.17
2019-05-09T22:55:01.139Z,97146.83
2019-05-09T22:57:28.638Z,97152.78
2019-05-09T22:59:56.140Z,97154.80
2019-05-09T23:02:23.952Z,97160.23
2019-05-09T23:04:51.448Z,97164.59
2019-05-09T23:07:19.280Z,97162.67
2019-05-09T23:09:46.780Z,97158.21
2019-05-09T23:12:14.340Z,97154.39
2019-05-09T23:14:41.836Z,97157.27
2019-05-09T23:17:09.700Z,97158.59
2019-05-09T23:19:37.217Z,97160.12
2019-05-09T23:22:05.036Z,97165.02
2019-05-09T23:24:34.455Z,97163.05
2019-05-09T23:27:01.949Z,97153.84
2019-05-09T23:29:29.523Z,97163.47
2019-05-09T23:32:10.954Z,97159.84
2019-05-09T23:34:38.459Z,97159.84
2019-05-09T23:37:05.953Z,97157.11
2019-05-09T23:39:35.093Z,97168.27
2019-05-09T23:42:02.579Z,97160.77
2019-05-09T23:44:30.080Z,97155.42
2019-05-09T23:46:57.575Z,97159.21
2019-05-09T23:49:25.072Z,97164.88
2019-05-09T23:51:52.569Z,97170.66
2019-05-09T23:54:47.372Z,97170.44
2019-05-09T23:57:26.525Z,97166.90
